Time;durP1;ratioP1;P1;durP2;ratioP2;P2;SDS_P1;SDS_P2;PMS_P1;PMS_P2;Temp;Humidity;BMP_temperature;BMP_pressure;BME280_temperature;BME280_humidity;BME280_pressure;Samples;Min_cycle;Max_cycle;Signal;HPM_P1;HPM_P2
2022/10/26 00:01:56;;;;;;;0.10;0.10;;;;;;;;;;6248867;22;20039;-90
2022/10/26 00:04:22;;;;;;;0.10;0.10;;;;;;;;;;6248995;22;20393;-90
2022/10/26 00:06:48;;;;;;;0.10;0.10;;;;;;;;;;6248555;22;20030;-90
2022/10/26 00:09:14;;;;;;;0.10;0.10;;;;;;;;;;6248648;22;20060;-90
2022/10/26 00:11:40;;;;;;;0.10;0.10;;;;;;;;;;6248328;22;20444;-90
2022/10/26 00:14:06;;;;;;;0.10;0.10;;;;;;;;;;6248617;22;20018;-90
2022/10/26 00:16:32;;;;;;;0.10;0.10;;;;;;;;;;6248686;22;20016;-90
2022/10/26 00:18:58;;;;;;;0.10;0.10;;;;;;;;;;6248699;22;20022;-90
2022/10/26 00:21:24;;;;;;;0.10;0.10;;;;;;;;;;6248713;22;20043;-90
2022/10/26 00:23:50;;;;;;;0.10;0.10;;;;;;;;;;6248300;22;20012;-90
2022/10/26 00:26:16;;;;;;;0.10;0.10;;;;;;;;;;6248829;22;20008;-90
2022/10/26 00:28:42;;;;;;;0.10;0.10;;;;;;;;;;6248675;22;20014;-90
2022/10/26 00:31:12;;;;;;;0.10;0.10;;;;;;;;;;6248418;22;20018;-90
2022/10/26 00:33:38;;;;;;;0.10;0.10;;;;;;;;;;6248520;22;20019;-90
2022/10/26 00:36:04;;;;;;;0.10;0.10;;;;;;;;;;6249104;22;20037;-90
2022/10/26 00:38:30;;;;;;;0.10;0.10;;;;;;;;;;6250807;22;20114;-91
2022/10/26 00:40:56;;;;;;;0.10;0.10;;;;;;;;;;6250456;22;20019;-90
2022/10/26 00:43:21;;;;;;;0.10;0.10;;;;;;;;;;6250260;22;20012;-90
2022/10/26 00:45:48;;;;;;;0.20;0.20;;;;;;;;;;6276005;22;20516;-91
2022/10/26 00:48:24;;;;;;;0.10;0.10;;;;;;;;;;6250453;22;20403;-90
2022/10/26 00:50:50;;;;;;;0.10;0.10;;;;;;;;;;6250215;22;20086;-90
2022/10/26 00:53:16;;;;;;;0.10;0.10;;;;;;;;;;6249972;22;20050;-90
2022/10/26 00:55:44;;;;;;;0.10;0.10;;;;;;;;;;6250050;22;20011;-90
2022/10/26 00:58:10;;;;;;;0.10;0.10;;;;;;;;;;6250382;22;20015;-89
2022/10/26 01:00:36;;;;;;;0.10;0.10;;;;;;;;;;6250098;22;20030;-89
2022/10/26 01:03:04;;;;;;;0.10;0.10;;;;;;;;;;6249975;22;20145;-89
2022/10/26 01:05:30;;;;;;;0.10;0.10;;;;;;;;;;6249899;22;20011;-89
2022/10/26 01:07:56;;;;;;;0.10;0.10;;;;;;;;;;6249696;22;20012;-89
2022/10/26 01:10:22;;;;;;;0.10;0.10;;;;;;;;;;6249720;22;20437;-89
2022/10/26 01:12:50;;;;;;;0.10;0.10;;;;;;;;;;6249869;22;20015;-89
2022/10/26 01:15:16;;;;;;;0.10;0.10;;;;;;;;;;6249916;22;20011;-90
2022/10/26 01:17:48;;;;;;;0.10;0.10;;;;;;;;;;6250057;22;20366;-89
2022/10/26 01:20:26;;;;;;;0.10;0.10;;;;;;;;;;6275160;22;20086;-89
2022/10/26 01:22:55;;;;;;;0.10;0.10;;;;;;;;;;6274933;22;20047;-89
2022/10/26 01:25:24;;;;;;;0.10;0.10;;;;;;;;;;6275121;22;20445;-89
2022/10/26 01:27:50;;;;;;;0.10;0.10;;;;;;;;;;6274893;22;20332;-89
2022/10/26 01:30:19;;;;;;;0.10;0.10;;;;;;;;;;6249575;22;20018;-89
2022/10/26 01:32:57;;;;;;;0.10;0.10;;;;;;;;;;6275146;22;20019;-90
2022/10/26 01:35:27;;;;;;;0.10;0.10;;;;;;;;;;6224473;22;20433;-90
2022/10/26 01:38:04;;;;;;;0.10;0.10;;;;;;;;;;6250045;22;20015;-89
2022/10/26 01:40:37;;;;;;;0.10;0.10;;;;;;;;;;6250437;22;20298;-89
2022/10/26 01:43:04;;;;;;;0.10;0.10;;;;;;;;;;6253017;22;20034;-91
2022/10/26 01:45:30;;;;;;;0.10;0.10;;;;;;;;;;6255676;22;20015;-91
2022/10/26 01:47:56;;;;;;;0.10;0.10;;;;;;;;;;6249910;22;20043;-90
2022/10/26 01:50:22;;;;;;;0.10;0.10;;;;;;;;;;6251111;22;20392;-90
2022/10/26 01:52:49;;;;;;;0.10;0.10;;;;;;;;;;6254549;22;20023;-90
2022/10/26 01:55:34;;;;;;;0.17;0.17;;;;;;;;;;6252592;22;20016;-90
2022/10/26 01:58:03;;;;;;;0.10;0.10;;;;;;;;;;6277192;22;20011;-90
2022/10/26 02:00:28;;;;;;;0.17;0.17;;;;;;;;;;6249739;22;20008;-89
2022/10/26 02:03:07;;;;;;;0.20;0.20;;;;;;;;;;6249288;22;20034;-90
2022/10/26 02:05:45;;;;;;;0.10;0.10;;;;;;;;;;6249977;22;20012;-90
2022/10/26 02:08:14;;;;;;;0.10;0.10;;;;;;;;;;6274911;22;20008;-89
2022/10/26 02:11:01;;;;;;;0.10;0.10;;;;;;;;;;6275031;22;20011;-89
2022/10/26 02:13:46;;;;;;;0.20;0.20;;;;;;;;;;6249297;22;20015;-90
2022/10/26 02:16:20;;;;;;;0.10;0.10;;;;;;;;;;6274770;22;20444;-90
2022/10/26 02:18:46;;;;;;;0.10;0.10;;;;;;;;;;6249626;22;20475;-90
2022/10/26 02:21:38;;;;;;;0.10;0.10;;;;;;;;;;6275443;22;20095;-90
2022/10/26 02:24:05;;;;;;;0.35;0.35;;;;;;;;;;6275040;22;20376;-90
2022/10/26 02:26:31;;;;;;;0.10;0.10;;;;;;;;;;6249303;22;20012;-90
2022/10/26 02:28:58;;;;;;;0.25;0.25;;;;;;;;;;6249296;22;20018;-90
2022/10/26 02:31:24;;;;;;;0.30;0.30;;;;;;;;;;6249435;22;20007;-90
2022/10/26 02:33:50;;;;;;;0.30;0.20;;;;;;;;;;6249101;22;20037;-90
2022/10/26 02:36:17;;;;;;;0.10;0.10;;;;;;;;;;6274709;22;20038;-90
2022/10/26 02:38:43;;;;;;;0.10;0.10;;;;;;;;;;6250121;22;20016;-90
2022/10/26 02:41:09;;;;;;;0.10;0.10;;;;;;;;;;6249613;22;20076;-90
2022/10/26 02:43:37;;;;;;;0.55;0.22;;;;;;;;;;6249042;22;20019;-90
2022/10/26 02:46:05;;;;;;;0.10;0.10;;;;;;;;;;6249260;22;20011;-90
2022/10/26 02:48:31;;;;;;;0.10;0.10;;;;;;;;;;6249035;22;20061;-90
2022/10/26 02:50:57;;;;;;;1.98;0.52;;;;;;;;;;6249191;22;20012;-90
2022/10/26 02:53:26;;;;;;;0.10;0.10;;;;;;;;;;6274532;22;20011;-90
2022/10/26 02:55:52;;;;;;;0.10;0.10;;;;;;;;;;6274487;22;20011;-90
2022/10/26 02:58:20;;;;;;;0.10;0.10;;;;;;;;;;6248990;22;20038;-90
2022/10/26 03:00:46;;;;;;;0.10;0.10;;;;;;;;;;6274272;22;20019;-90
2022/10/26 03:03:12;;;;;;;0.10;0.10;;;;;;;;;;6248981;22;20012;-90
2022/10/26 03:05:40;;;;;;;0.20;0.20;;;;;;;;;;6249596;22;20090;-90
2022/10/26 03:08:06;;;;;;;0.10;0.10;;;;;;;;;;6248790;22;20008;-90
2022/10/26 03:10:33;;;;;;;0.10;0.10;;;;;;;;;;6219004;23;20020;-90
2022/10/26 03:12:59;;;;;;;0.10;0.10;;;;;;;;;;6194101;23;20044;-90
2022/10/26 03:15:25;;;;;;;0.20;0.20;;;;;;;;;;6218611;23;20469;-90
2022/10/26 03:17:51;;;;;;;0.10;0.10;;;;;;;;;;6193784;23;20147;-89
2022/10/26 03:20:18;;;;;;;0.17;0.17;;;;;;;;;;6218506;23;20503;-90
2022/10/26 03:22:44;;;;;;;0.10;0.10;;;;;;;;;;6193532;23;20039;-89
2022/10/26 03:25:10;;;;;;;0.10;0.10;;;;;;;;;;6219028;23;20441;-90
2022/10/26 03:27:37;;;;;;;0.10;0.10;;;;;;;;;;6218463;23;20012;-90
2022/10/26 03:30:04;;;;;;;0.10;0.10;;;;;;;;;;6218517;23;20012;-89
2022/10/26 03:32:30;;;;;;;0.20;0.20;;;;;;;;;;6193492;23;20016;-90
2022/10/26 03:34:56;;;;;;;0.30;0.30;;;;;;;;;;6193661;23;20020;-90
2022/10/26 03:37:22;;;;;;;0.10;0.10;;;;;;;;;;6193969;23;20062;-89
2022/10/26 03:39:48;;;;;;;0.10;0.10;;;;;;;;;;6218841;23;20012;-90
2022/10/26 03:42:14;;;;;;;0.28;0.28;;;;;;;;;;6193774;23;20020;-90
2022/10/26 03:44:40;;;;;;;0.10;0.10;;;;;;;;;;6193841;23;20095;-90
2022/10/26 03:47:06;;;;;;;0.20;0.20;;;;;;;;;;6193894;23;20066;-90
2022/10/26 03:49:32;;;;;;;0.10;0.10;;;;;;;;;;6194313;23;20008;-90
2022/10/26 03:51:58;;;;;;;0.10;0.10;;;;;;;;;;6193994;23;20023;-90
2022/10/26 03:54:24;;;;;;;0.13;0.13;;;;;;;;;;6219688;23;20385;-90
2022/10/26 03:56:51;;;;;;;0.17;0.17;;;;;;;;;;6201356;23;20047;-90
2022/10/26 03:59:17;;;;;;;0.10;0.10;;;;;;;;;;6200143;23;20012;-90
2022/10/26 04:01:43;;;;;;;0.10;0.10;;;;;;;;;;6199088;23;20016;-90
2022/10/26 04:04:09;;;;;;;0.10;0.10;;;;;;;;;;6198912;23;20020;-90
2022/10/26 04:06:35;;;;;;;0.10;0.10;;;;;;;;;;6198880;23;20016;-90
2022/10/26 04:09:02;;;;;;;0.10;0.10;;;;;;;;;;6198086;23;20015;-90
2022/10/26 04:11:30;;;;;;;0.10;0.10;;;;;;;;;;6222098;23;20418;-90
2022/10/26 04:13:59;;;;;;;0.10;0.10;;;;;;;;;;6248568;23;20051;-90
2022/10/26 04:16:25;;;;;;;0.10;0.10;;;;;;;;;;6198957;23;20093;-89
2022/10/26 04:18:51;;;;;;;0.10;0.10;;;;;;;;;;6198787;23;20333;-90
2022/10/26 04:21:18;;;;;;;0.10;0.10;;;;;;;;;;6198411;23;20020;-90
2022/10/26 04:23:44;;;;;;;0.20;0.20;;;;;;;;;;6222531;23;20020;-89
2022/10/26 04:26:10;;;;;;;0.10;0.10;;;;;;;;;;6172431;23;20108;-89
2022/10/26 04:28:35;;;;;;;0.10;0.10;;;;;;;;;;6197932;23;20019;-90
2022/10/26 04:31:01;;;;;;;0.10;0.10;;;;;;;;;;6177491;23;20012;-90
2022/10/26 04:33:27;;;;;;;0.10;0.10;;;;;;;;;;6200412;23;20027;-89
2022/10/26 04:35:58;;;;;;;0.10;0.10;;;;;;;;;;6225304;23;20388;-90
2022/10/26 04:38:24;;;;;;;0.28;0.28;;;;;;;;;;6200203;23;20016;-90
2022/10/26 04:40:50;;;;;;;0.32;0.30;;;;;;;;;;6199211;23;20035;-89
2022/10/26 04:43:16;;;;;;;0.70;0.25;;;;;;;;;;6223942;23;20016;-89
2022/10/26 04:45:42;;;;;;;0.10;0.10;;;;;;;;;;6197977;23;20078;-90
2022/10/26 04:48:09;;;;;;;0.20;0.20;;;;;;;;;;6220163;23;20012;-90
2022/10/26 04:50:35;;;;;;;0.10;0.10;;;;;;;;;;6195146;23;20051;-89
2022/10/26 04:53:01;;;;;;;0.22;0.22;;;;;;;;;;6220253;23;20012;-89
2022/10/26 04:55:27;;;;;;;0.10;0.10;;;;;;;;;;6219937;23;20016;-90
2022/10/26 04:57:53;;;;;;;0.15;0.15;;;;;;;;;;6194572;23;20055;-89
2022/10/26 05:00:20;;;;;;;0.20;0.20;;;;;;;;;;6195011;23;20012;-89
2022/10/26 05:02:46;;;;;;;0.10;0.10;;;;;;;;;;6219670;23;20385;-89
2022/10/26 05:05:12;;;;;;;0.10;0.10;;;;;;;;;;6219575;23;20012;-90
2022/10/26 05:07:38;;;;;;;0.10;0.10;;;;;;;;;;6194797;23;20069;-90
2022/10/26 05:10:04;;;;;;;0.10;0.10;;;;;;;;;;6219922;23;20402;-90
2022/10/26 05:12:30;;;;;;;0.10;0.10;;;;;;;;;;6194056;23;20452;-90
2022/10/26 05:14:57;;;;;;;0.20;0.20;;;;;;;;;;6219813;23;20024;-89
2022/10/26 05:17:26;;;;;;;0.10;0.10;;;;;;;;;;6219433;23;20016;-90
2022/10/26 05:19:54;;;;;;;0.20;0.20;;;;;;;;;;6194496;23;20048;-90
2022/10/26 05:22:29;;;;;;;0.10;0.10;;;;;;;;;;6194101;23;20023;-91
2022/10/26 05:24:55;;;;;;;0.10;0.10;;;;;;;;;;6194550;23;20097;-90
2022/10/26 05:27:21;;;;;;;0.10;0.10;;;;;;;;;;6194833;23;20364;-90
2022/10/26 05:29:47;;;;;;;0.20;0.20;;;;;;;;;;6219767;23;20009;-90
2022/10/26 05:32:13;;;;;;;0.10;0.10;;;;;;;;;;6219587;23;20012;-90
2022/10/26 05:34:39;;;;;;;0.10;0.10;;;;;;;;;;6189507;23;20079;-90
2022/10/26 05:37:05;;;;;;;0.10;0.10;;;;;;;;;;6214201;23;20024;-90
2022/10/26 05:39:31;;;;;;;0.10;0.10;;;;;;;;;;6189483;23;20016;-91
2022/10/26 05:41:57;;;;;;;0.10;0.10;;;;;;;;;;6214608;23;20452;-90
2022/10/26 05:44:23;;;;;;;0.10;0.10;;;;;;;;;;6190321;23;20013;-89
2022/10/26 05:46:49;;;;;;;0.10;0.10;;;;;;;;;;6140071;23;20088;-89
2022/10/26 05:49:15;;;;;;;0.10;0.10;;;;;;;;;;6140532;23;20012;-90
2022/10/26 05:51:41;;;;;;;0.10;0.10;;;;;;;;;;6168485;23;20009;-90
2022/10/26 05:54:07;;;;;;;0.20;0.20;;;;;;;;;;6195079;23;20346;-90
2022/10/26 05:56:33;;;;;;;0.20;0.20;;;;;;;;;;6145068;23;20092;-90
2022/10/26 05:58:59;;;;;;;0.55;0.55;;;;;;;;;;6164205;23;20017;-92
2022/10/26 06:01:25;;;;;;;0.10;0.10;;;;;;;;;;6190240;23;20405;-90
2022/10/26 06:03:58;;;;;;;0.10;0.10;;;;;;;;;;6165274;23;20047;-89
2022/10/26 06:06:24;;;;;;;0.10;0.10;;;;;;;;;;6164484;23;20031;-89
2022/10/26 06:08:51;;;;;;;0.10;0.10;;;;;;;;;;6164336;23;20013;-89
2022/10/26 06:11:17;;;;;;;0.10;0.10;;;;;;;;;;6139077;23;20410;-89
2022/10/26 06:13:44;;;;;;;0.30;0.30;;;;;;;;;;6163919;23;20088;-89
2022/10/26 06:16:13;;;;;;;0.10;0.10;;;;;;;;;;6164037;23;20022;-89
2022/10/26 06:18:55;;;;;;;0.10;0.10;;;;;;;;;;6164022;23;20016;-89
2022/10/26 06:21:24;;;;;;;0.17;0.15;;;;;;;;;;6139484;23;20012;-89
2022/10/26 06:23:54;;;;;;;0.10;0.10;;;;;;;;;;6163459;23;20012;-89
2022/10/26 06:26:33;;;;;;;0.20;0.20;;;;;;;;;;6139339;23;20320;-89
2022/10/26 06:28:59;;;;;;;0.10;0.10;;;;;;;;;;6139383;23;20013;-89
2022/10/26 06:31:25;;;;;;;0.10;0.10;;;;;;;;;;6163448;23;20009;-89
2022/10/26 06:33:52;;;;;;;0.65;0.65;;;;;;;;;;6181062;23;20020;-90
2022/10/26 06:36:21;;;;;;;0.10;0.10;;;;;;;;;;6218273;23;20022;-88
2022/10/26 06:38:47;;;;;;;0.10;0.10;;;;;;;;;;6169100;23;20012;-86
2022/10/26 06:41:14;;;;;;;0.10;0.10;;;;;;;;;;6193581;23;20016;-88
2022/10/26 06:43:40;;;;;;;0.10;0.10;;;;;;;;;;6168467;23;20043;-86
2022/10/26 06:46:24;;;;;;;1.30;0.30;;;;;;;;;;6193142;23;20511;-89
2022/10/26 06:48:57;;;;;;;0.10;0.10;;;;;;;;;;6168718;23;20097;-88
2022/10/26 06:51:23;;;;;;;0.10;0.10;;;;;;;;;;6218506;23;20059;-89
2022/10/26 06:54:15;;;;;;;0.20;0.20;;;;;;;;;;6167372;23;20051;-90
2022/10/26 06:56:41;;;;;;;0.10;0.10;;;;;;;;;;6188106;23;20074;-91
2022/10/26 06:59:08;;;;;;;0.10;0.10;;;;;;;;;;6168770;23;20054;-92
2022/10/26 07:01:34;;;;;;;0.20;0.20;;;;;;;;;;6168740;23;20016;-91
2022/10/26 07:04:00;;;;;;;0.10;0.10;;;;;;;;;;6168375;23;20016;-91
2022/10/26 07:06:26;;;;;;;0.10;0.10;;;;;;;;;;6168937;23;20012;-91
2022/10/26 07:08:52;;;;;;;0.10;0.10;;;;;;;;;;6169093;23;20437;-92
2022/10/26 07:11:18;;;;;;;0.30;0.30;;;;;;;;;;6169078;23;20019;-92
2022/10/26 07:13:44;;;;;;;0.10;0.10;;;;;;;;;;6169712;23;20081;-92
2022/10/26 07:16:10;;;;;;;0.10;0.10;;;;;;;;;;6169045;23;20070;-91
2022/10/26 07:18:36;;;;;;;0.10;0.10;;;;;;;;;;6168732;23;20024;-91
2022/10/26 07:21:02;;;;;;;0.10;0.10;;;;;;;;;;6168587;23;20314;-93
2022/10/26 07:23:28;;;;;;;0.10;0.10;;;;;;;;;;6168366;23;20051;-90
2022/10/26 07:25:54;;;;;;;0.10;0.10;;;;;;;;;;6168586;23;20008;-91
2022/10/26 07:28:20;;;;;;;0.20;0.20;;;;;;;;;;6168551;23;20004;-92
2022/10/26 07:30:46;;;;;;;0.10;0.10;;;;;;;;;;6168771;23;20208;-91
2022/10/26 07:33:13;;;;;;;0.20;0.20;;;;;;;;;;6218050;23;20023;-91
2022/10/26 07:35:39;;;;;;;0.10;0.10;;;;;;;;;;6168577;23;20371;-91
2022/10/26 07:38:05;;;;;;;0.20;0.20;;;;;;;;;;6168421;23;20019;-91
2022/10/26 07:40:31;;;;;;;0.20;0.20;;;;;;;;;;6169072;23;20138;-93
2022/10/26 07:42:57;;;;;;;0.20;0.20;;;;;;;;;;6168532;23;20012;-90
2022/10/26 07:45:23;;;;;;;0.10;0.10;;;;;;;;;;6168662;23;20012;-91
2022/10/26 07:47:49;;;;;;;0.20;0.20;;;;;;;;;;6172256;23;20075;-93
2022/10/26 07:50:15;;;;;;;0.20;0.20;;;;;;;;;;6172182;23;20051;-91
2022/10/26 07:52:42;;;;;;;0.10;0.10;;;;;;;;;;6171885;23;20445;-93
2022/10/26 07:55:11;;;;;;;0.10;0.10;;;;;;;;;;6172220;23;20050;-94
2022/10/26 07:57:37;;;;;;;0.10;0.10;;;;;;;;;;6173806;23;20016;-93
2022/10/26 08:00:03;;;;;;;0.10;0.10;;;;;;;;;;6172437;23;20052;-93
2022/10/26 08:02:29;;;;;;;0.20;0.20;;;;;;;;;;6172467;23;20035;-94
2022/10/26 08:04:55;;;;;;;0.10;0.10;;;;;;;;;;6175140;23;20425;-93
2022/10/26 08:07:21;;;;;;;0.13;0.13;;;;;;;;;;6172034;23;20012;-92
2022/10/26 08:09:47;;;;;;;0.40;0.40;;;;;;;;;;6171869;23;20008;-91
2022/10/26 08:12:15;;;;;;;0.10;0.10;;;;;;;;;;6171612;23;20154;-91
2022/10/26 08:14:41;;;;;;;0.20;0.20;;;;;;;;;;6171865;23;20019;-92
2022/10/26 08:17:07;;;;;;;0.10;0.10;;;;;;;;;;6171475;23;20417;-92
2022/10/26 08:19:35;;;;;;;0.10;0.10;;;;;;;;;;6171857;23;20164;-92
2022/10/26 08:22:01;;;;;;;0.20;0.20;;;;;;;;;;6171736;23;20283;-93
2022/10/26 08:24:27;;;;;;;0.20;0.20;;;;;;;;;;6172668;23;20019;-91
2022/10/26 08:26:53;;;;;;;0.10;0.10;;;;;;;;;;6171309;23;20019;-93
2022/10/26 08:29:19;;;;;;;0.10;0.10;;;;;;;;;;6171611;23;20012;-92
2022/10/26 08:31:46;;;;;;;0.10;0.10;;;;;;;;;;6198034;23;20015;-93
2022/10/26 08:34:12;;;;;;;0.10;0.10;;;;;;;;;;6171847;23;20019;-94
2022/10/26 08:36:38;;;;;;;0.20;0.20;;;;;;;;;;6172099;23;20024;-90
2022/10/26 08:39:04;;;;;;;0.10;0.10;;;;;;;;;;6171291;23;20091;-93
2022/10/26 08:41:33;;;;;;;0.10;0.10;;;;;;;;;;6172024;23;20055;-94
2022/10/26 08:44:01;;;;;;;0.10;0.10;;;;;;;;;;6200653;23;20315;-94
2022/10/26 08:46:27;;;;;;;0.20;0.20;;;;;;;;;;6172297;23;20020;-94
2022/10/26 08:49:04;;;;;;;0.10;0.10;;;;;;;;;;6172056;23;20008;-93
2022/10/26 08:51:34;;;;;;;0.10;0.10;;;;;;;;;;6172113;23;20015;-94
2022/10/26 08:54:13;;;;;;;0.10;0.10;;;;;;;;;;6173162;23;20012;-95
2022/10/26 08:56:46;;;;;;;0.10;0.10;;;;;;;;;;6173057;23;20406;-93
2022/10/26 08:59:14;;;;;;;3.53;0.35;;;;;;;;;;6170407;23;20023;-93
2022/10/26 09:01:40;;;;;;;0.10;0.10;;;;;;;;;;6170889;23;20445;-94
2022/10/26 09:04:09;;;;;;;0.10;0.10;;;;;;;;;;6170047;23;20232;-92
2022/10/26 09:06:41;;;;;;;0.10;0.10;;;;;;;;;;6169582;23;20019;-93
2022/10/26 09:09:12;;;;;;;0.10;0.10;;;;;;;;;;6170679;23;20012;-93
2022/10/26 09:11:43;;;;;;;0.20;0.20;;;;;;;;;;6170307;23;20363;-93
2022/10/26 09:14:12;;;;;;;0.10;0.10;;;;;;;;;;6201029;23;20380;-92
2022/10/26 09:16:41;;;;;;;0.20;0.20;;;;;;;;;;6194186;23;20016;-93
2022/10/26 09:19:25;;;;;;;0.30;0.30;;;;;;;;;;6193301;23;20019;-89
2022/10/26 09:21:52;;;;;;;0.20;0.20;;;;;;;;;;6192076;23;20340;-90
2022/10/26 09:24:23;;;;;;;0.10;0.10;;;;;;;;;;6218879;23;20020;-93
2022/10/26 09:26:53;;;;;;;0.10;0.10;;;;;;;;;;6218421;23;20063;-90
2022/10/26 09:29:19;;;;;;;0.10;0.10;;;;;;;;;;6169562;23;20012;-88
2022/10/26 09:31:45;;;;;;;0.10;0.10;;;;;;;;;;6169080;23;20050;-89
2022/10/26 09:34:16;;;;;;;0.10;0.10;;;;;;;;;;6168709;23;20020;-89
2022/10/26 09:36:42;;;;;;;0.10;0.10;;;;;;;;;;6194125;23;20061;-90
2022/10/26 09:39:39;;;;;;;0.20;0.20;;;;;;;;;;6194058;23;20058;-90
2022/10/26 09:42:16;;;;;;;0.10;0.10;;;;;;;;;;6188035;23;20044;-89
2022/10/26 09:44:47;;;;;;;0.10;0.10;;;;;;;;;;6169549;23;20314;-89
2022/10/26 09:47:24;;;;;;;0.20;0.20;;;;;;;;;;6194072;23;20066;-92
2022/10/26 09:49:57;;;;;;;0.10;0.10;;;;;;;;;;6194305;23;20430;-88
2022/10/26 09:52:23;;;;;;;0.10;0.10;;;;;;;;;;6218460;23;20047;-89
2022/10/26 09:54:49;;;;;;;0.10;0.10;;;;;;;;;;6169759;23;20464;-93
2022/10/26 09:57:16;;;;;;;0.10;0.10;;;;;;;;;;6186436;23;20012;-90
2022/10/26 09:59:42;;;;;;;0.10;0.10;;;;;;;;;;6175484;23;20043;-89
2022/10/26 10:02:31;;;;;;;0.10;0.10;;;;;;;;;;6193942;23;20062;-92
2022/10/26 10:04:57;;;;;;;0.10;0.10;;;;;;;;;;6196271;23;20018;-91
2022/10/26 10:07:23;;;;;;;0.10;0.10;;;;;;;;;;6172830;23;20043;-91
2022/10/26 10:10:07;;;;;;;0.10;0.10;;;;;;;;;;6170604;23;20090;-93
2022/10/26 10:12:33;;;;;;;0.10;0.10;;;;;;;;;;6220443;23;20019;-92
2022/10/26 10:14:59;;;;;;;0.10;0.10;;;;;;;;;;6170263;23;20008;-92
2022/10/26 10:17:27;;;;;;;0.28;0.28;;;;;;;;;;6169460;23;20016;-90
2022/10/26 10:19:53;;;;;;;0.10;0.10;;;;;;;;;;6168984;23;20031;-91
2022/10/26 10:22:21;;;;;;;0.10;0.10;;;;;;;;;;6169689;23;20012;-92
2022/10/26 10:24:57;;;;;;;0.10;0.10;;;;;;;;;;6169852;23;20023;-92
2022/10/26 10:27:23;;;;;;;0.10;0.10;;;;;;;;;;6169954;23;20012;-93
2022/10/26 10:29:54;;;;;;;0.10;0.10;;;;;;;;;;6169569;23;20004;-93
2022/10/26 10:32:30;;;;;;;0.30;0.30;;;;;;;;;;6169108;23;20009;-91
2022/10/26 10:34:57;;;;;;;0.10;0.10;;;;;;;;;;6140337;23;20043;-92
2022/10/26 10:37:24;;;;;;;0.10;0.10;;;;;;;;;;6164236;23;20106;-92
2022/10/26 10:39:50;;;;;;;0.10;0.10;;;;;;;;;;6164352;23;20445;-91
2022/10/26 10:42:26;;;;;;;0.10;0.10;;;;;;;;;;6164325;23;20016;-90
2022/10/26 10:44:55;;;;;;;0.10;0.10;;;;;;;;;;6163829;23;20013;-91
2022/10/26 10:47:22;;;;;;;0.10;0.10;;;;;;;;;;6164264;23;20067;-90
2022/10/26 10:49:56;;;;;;;0.10;0.10;;;;;;;;;;6163539;23;20016;-89
2022/10/26 10:52:23;;;;;;;0.10;0.10;;;;;;;;;;6163623;23;20458;-91
2022/10/26 10:54:49;;;;;;;0.10;0.10;;;;;;;;;;6163248;23;20020;-91
2022/10/26 10:57:32;;;;;;;0.10;0.10;;;;;;;;;;6163233;23;20009;-91
2022/10/26 11:00:00;;;;;;;0.10;0.10;;;;;;;;;;6139434;23;20013;-90
2022/10/26 11:02:29;;;;;;;0.10;0.10;;;;;;;;;;6163274;23;20012;-91
2022/10/26 11:05:14;;;;;;;0.10;0.10;;;;;;;;;;6163940;23;20430;-91
2022/10/26 11:07:49;;;;;;;0.10;0.10;;;;;;;;;;6187558;23;20012;-90
2022/10/26 11:10:15;;;;;;;0.10;0.10;;;;;;;;;;6163143;23;20512;-91
2022/10/26 11:12:46;;;;;;;0.10;0.10;;;;;;;;;;6163172;23;20500;-90
2022/10/26 11:15:16;;;;;;;0.10;0.10;;;;;;;;;;6163515;23;20053;-91
2022/10/26 11:17:55;;;;;;;0.10;0.10;;;;;;;;;;6163310;23;20158;-89
2022/10/26 11:20:22;;;;;;;0.10;0.10;;;;;;;;;;6162245;23;20013;-89
2022/10/26 11:22:51;;;;;;;0.10;0.10;;;;;;;;;;6163186;23;20016;-88
2022/10/26 11:25:18;;;;;;;0.10;0.10;;;;;;;;;;6187709;23;20016;-88
2022/10/26 11:28:02;;;;;;;0.10;0.10;;;;;;;;;;6163000;23;20008;-88
2022/10/26 11:30:28;;;;;;;0.10;0.10;;;;;;;;;;6163009;23;20058;-88
2022/10/26 11:32:55;;;;;;;0.10;0.10;;;;;;;;;;6166721;23;20020;-92
2022/10/26 11:35:23;;;;;;;0.10;0.10;;;;;;;;;;6168507;23;20020;-90
2022/10/26 11:37:49;;;;;;;0.10;0.10;;;;;;;;;;6217754;23;20044;-90
2022/10/26 11:40:33;;;;;;;0.10;0.10;;;;;;;;;;6217989;23;20016;-90
2022/10/26 11:43:03;;;;;;;0.10;0.10;;;;;;;;;;6167834;23;20035;-90
2022/10/26 11:45:34;;;;;;;0.10;0.10;;;;;;;;;;6168104;23;20040;-90
2022/10/26 11:48:02;;;;;;;0.10;0.10;;;;;;;;;;6168427;23;20008;-90
2022/10/26 11:50:34;;;;;;;0.13;0.13;;;;;;;;;;6168261;23;20012;-91
2022/10/26 11:53:02;;;;;;;0.10;0.10;;;;;;;;;;6168045;23;20024;-91
2022/10/26 11:55:28;;;;;;;0.10;0.10;;;;;;;;;;6168375;23;20020;-91
2022/10/26 11:57:54;;;;;;;0.10;0.10;;;;;;;;;;6168059;23;20012;-91
2022/10/26 12:00:20;;;;;;;0.10;0.10;;;;;;;;;;6168177;23;20345;-92
2022/10/26 12:02:56;;;;;;;0.10;0.10;;;;;;;;;;6193060;23;20067;-91
2022/10/26 12:05:35;;;;;;;0.10;0.10;;;;;;;;;;6168300;23;20008;-90
2022/10/26 12:08:06;;;;;;;0.10;0.10;;;;;;;;;;6217390;23;20442;-90
2022/10/26 12:10:33;;;;;;;0.10;0.10;;;;;;;;;;6230418;23;20091;-90
2022/10/26 12:12:59;;;;;;;0.10;0.10;;;;;;;;;;6217491;23;20112;-90
2022/10/26 12:15:36;;;;;;;0.10;0.10;;;;;;;;;;6217724;23;20398;-89
2022/10/26 12:18:13;;;;;;;0.20;0.20;;;;;;;;;;6192818;23;20043;-90
2022/10/26 12:20:48;;;;;;;0.10;0.10;;;;;;;;;;6167776;23;20094;-89
2022/10/26 12:23:14;;;;;;;0.13;0.13;;;;;;;;;;6217371;23;20389;-89
2022/10/26 12:25:40;;;;;;;0.10;0.10;;;;;;;;;;6192556;23;20012;-89
2022/10/26 12:28:07;;;;;;;0.20;0.20;;;;;;;;;;6167634;23;20012;-89
2022/10/26 12:30:35;;;;;;;0.20;0.20;;;;;;;;;;6167874;23;20047;-89
2022/10/26 12:33:04;;;;;;;0.10;0.10;;;;;;;;;;6193418;23;20060;-89
2022/10/26 12:35:33;;;;;;;0.10;0.10;;;;;;;;;;6170017;23;20030;-88
2022/10/26 12:37:59;;;;;;;0.17;0.17;;;;;;;;;;6219274;23;20433;-89
2022/10/26 12:40:33;;;;;;;0.10;0.10;;;;;;;;;;6169745;23;20016;-89
2022/10/26 12:43:15;;;;;;;0.10;0.10;;;;;;;;;;6218931;23;20027;-90
2022/10/26 12:45:41;;;;;;;0.10;0.10;;;;;;;;;;6219271;23;20008;-89
2022/10/26 12:48:10;;;;;;;0.10;0.10;;;;;;;;;;6169556;23;20095;-89
2022/10/26 12:50:36;;;;;;;0.10;0.10;;;;;;;;;;6219219;23;20047;-89
2022/10/26 12:53:07;;;;;;;0.10;0.10;;;;;;;;;;6169482;23;20023;-90
2022/10/26 12:55:46;;;;;;;0.20;0.20;;;;;;;;;;6169399;23;20347;-89
2022/10/26 12:58:24;;;;;;;0.10;0.10;;;;;;;;;;6219305;23;20394;-90
2022/10/26 13:01:00;;;;;;;0.10;0.10;;;;;;;;;;6219580;23;20488;-89
2022/10/26 13:03:44;;;;;;;0.10;0.10;;;;;;;;;;6219071;23;20098;-90
2022/10/26 13:06:10;;;;;;;0.10;0.10;;;;;;;;;;6218822;23;20008;-89
2022/10/26 13:08:40;;;;;;;0.10;0.10;;;;;;;;;;6219042;23;20008;-91
2022/10/26 13:11:07;;;;;;;0.10;0.10;;;;;;;;;;6169750;23;20062;-91
2022/10/26 13:13:33;;;;;;;0.10;0.10;;;;;;;;;;6169033;23;20012;-91
2022/10/26 13:15:59;;;;;;;0.10;0.10;;;;;;;;;;6169029;23;20071;-93
2022/10/26 13:18:25;;;;;;;0.10;0.10;;;;;;;;;;6169641;23;20153;-91
2022/10/26 13:20:53;;;;;;;0.10;0.10;;;;;;;;;;6169181;23;20016;-90
2022/10/26 13:23:28;;;;;;;0.10;0.10;;;;;;;;;;6169272;23;20016;-90
2022/10/26 13:26:01;;;;;;;0.10;0.10;;;;;;;;;;6169185;23;20016;-90
2022/10/26 13:28:31;;;;;;;0.10;0.10;;;;;;;;;;6168736;23;20040;-92
2022/10/26 13:30:57;;;;;;;0.20;0.20;;;;;;;;;;6170038;23;20066;-92
2022/10/26 13:33:24;;;;;;;0.10;0.10;;;;;;;;;;6193465;23;20338;-89
2022/10/26 13:35:51;;;;;;;0.10;0.10;;;;;;;;;;6168951;23;20371;-90
2022/10/26 13:38:18;;;;;;;0.10;0.10;;;;;;;;;;6218734;23;20012;-89
2022/10/26 13:40:44;;;;;;;0.10;0.10;;;;;;;;;;6168844;23;20103;-89
2022/10/26 13:43:15;;;;;;;0.10;0.10;;;;;;;;;;6169381;23;20101;-88
2022/10/26 13:46:14;;;;;;;0.10;0.10;;;;;;;;;;6169127;23;20019;-87
2022/10/26 13:48:40;;;;;;;0.20;0.20;;;;;;;;;;6160597;23;20012;-88
2022/10/26 13:51:14;;;;;;;0.10;0.10;;;;;;;;;;6193942;23;20004;-89
2022/10/26 13:53:42;;;;;;;0.10;0.10;;;;;;;;;;6168903;23;20012;-90
2022/10/26 13:56:13;;;;;;;0.10;0.10;;;;;;;;;;6169119;23;20020;-90
2022/10/26 13:58:42;;;;;;;0.10;0.10;;;;;;;;;;6169251;23;20020;-89
2022/10/26 14:01:12;;;;;;;0.20;0.20;;;;;;;;;;6193902;23;20020;-88
2022/10/26 14:03:38;;;;;;;0.10;0.10;;;;;;;;;;6168850;23;20024;-89
2022/10/26 14:06:16;;;;;;;0.20;0.20;;;;;;;;;;6168692;23;20414;-90
2022/10/26 14:08:42;;;;;;;0.20;0.20;;;;;;;;;;6169516;23;20091;-90
2022/10/26 14:11:10;;;;;;;0.10;0.10;;;;;;;;;;6169088;23;20012;-90
2022/10/26 14:13:36;;;;;;;0.20;0.20;;;;;;;;;;6168897;23;20402;-90
2022/10/26 14:16:02;;;;;;;0.10;0.10;;;;;;;;;;6168577;23;20016;-89
2022/10/26 14:18:29;;;;;;;0.10;0.10;;;;;;;;;;6168654;23;20055;-89
2022/10/26 14:20:56;;;;;;;0.10;0.10;;;;;;;;;;6193681;23;20016;-89
2022/10/26 14:23:26;;;;;;;0.10;0.10;;;;;;;;;;6193311;23;20023;-90
2022/10/26 14:25:54;;;;;;;0.10;0.10;;;;;;;;;;6218202;23;20009;-89
2022/10/26 14:28:20;;;;;;;0.10;0.10;;;;;;;;;;6168946;23;20070;-90
2022/10/26 14:30:46;;;;;;;0.10;0.10;;;;;;;;;;6193678;23;20092;-89
2022/10/26 14:33:19;;;;;;;0.10;0.10;;;;;;;;;;6218026;23;20020;-90
2022/10/26 14:35:45;;;;;;;0.10;0.10;;;;;;;;;;6168840;23;20052;-90
2022/10/26 14:38:21;;;;;;;0.17;0.17;;;;;;;;;;6168685;23;20023;-90
2022/10/26 14:40:47;;;;;;;0.10;0.10;;;;;;;;;;6168533;23;20016;-89
2022/10/26 14:43:17;;;;;;;0.10;0.10;;;;;;;;;;6192240;23;20016;-90
2022/10/26 14:45:47;;;;;;;0.10;0.10;;;;;;;;;;6168489;23;20012;-92
2022/10/26 14:48:14;;;;;;;0.10;0.10;;;;;;;;;;6168497;23;20078;-88
2022/10/26 14:50:40;;;;;;;0.10;0.10;;;;;;;;;;6168301;23;20087;-89
2022/10/26 14:53:16;;;;;;;0.10;0.10;;;;;;;;;;6193080;23;20016;-87